Airfield :
LOGIN :

Register | Disclaimer

   EN    FR    IT 

 










Legend :    VFR   Marginal VFR   IFR   Intensive IFR   Very Intensive IFR
Visi :
Ceiling :
>= 8 km
>= 3000ft
5 to 8 km
1000 to 3000 ft
1500m to 5 km
500 to 1000 ft
800 to 1500m
200 to 500 ft
< 800m
< 200 ft
Symbols :   Thunderstorms  Fog  Heavy snow  Heavy precipitations  Wind > 20 kt
SIGMETs :     Misc.  Thunderstorms  Icing  Turbulence  Mountain Waves  Volcanic Ashes






- Airport Elevation : 87 ft
- IATA code : AHO


LIEA - Fertilia Alghero

CURRENT METAR :
  • 262150Z 27007KT 240V300 9999 SCT035 18/12 Q1007

EXPIRED METARs :
  • 262120Z 29009KT 250V320 9999 SCT035 18/12 Q1007
  • 262050Z 29010KT 250V330 9999 -SHRA BKN038 18/12 Q1007
  • 262020Z 28013KT 240V310 9999 BKN038 18/10 Q1007
  • 261950Z 29012G24KT 260V340 9999 SCT040 18/10 Q1008
  • 261920Z 29015G25KT 260V330 9999 SCT045 18/09 Q1008

TAF TAF LIEA
Valid from the 26 at 18:00 until the 27 at 18:00 UTC


261700Z 2618/2718 24018KT 9999 SCT030
BECMG 2700/2702 18016KT
TEMPO 2700/2706 4000 TSRA
BECMG 2703/2705 29018G28KT



MET'MAP, your aeronautical weather chart ! - Copyright ORBIFLY December 2007 - Disclaimer

ORBIFLY MET'MAP TEAM :

Programming & Development : Alexandra Zaïnal
Concept & original design : Baudouin d'Aumeries
Assistance for programming : Marc-Olivier Méhu
Technical & hardware support : Manuel Goepfert

Contact : metmap@orbifly.com




SOURCES & CREDITS :

   NOAA